sensor_id;sensor_type;location;lat;lon;timestamp;P1;durP1;ratioP1;P2;durP2;ratioP2
41233;SDS011;26968;42.686;23.352;2023-10-08T00:00:03;15.43;;;7.15;;
41233;SDS011;26968;42.686;23.352;2023-10-08T00:02:49;18.30;;;7.55;;
41233;SDS011;26968;42.686;23.352;2023-10-08T00:05:15;16.63;;;6.43;;
41233;SDS011;26968;42.686;23.352;2023-10-08T00:07:41;17.02;;;6.60;;
41233;SDS011;26968;42.686;23.352;2023-10-08T00:10:08;18.75;;;7.15;;
41233;SDS011;26968;42.686;23.352;2023-10-08T00:12:34;18.67;;;7.97;;
41233;SDS011;26968;42.686;23.352;2023-10-08T00:14:59;14.82;;;5.82;;
41233;SDS011;26968;42.686;23.352;2023-10-08T00:17:25;16.88;;;6.38;;
41233;SDS011;26968;42.686;23.352;2023-10-08T00:19:51;16.30;;;7.45;;
41233;SDS011;26968;42.686;23.352;2023-10-08T00:22:17;24.98;;;7.22;;
41233;SDS011;26968;42.686;23.352;2023-10-08T00:24:44;17.23;;;6.88;;
41233;SDS011;26968;42.686;23.352;2023-10-08T00:27:11;18.15;;;6.95;;
41233;SDS011;26968;42.686;23.352;2023-10-08T00:29:40;15.90;;;7.18;;
41233;SDS011;26968;42.686;23.352;2023-10-08T00:32:07;20.67;;;6.95;;
41233;SDS011;26968;42.686;23.352;2023-10-08T00:34:40;12.75;;;7.05;;
41233;SDS011;26968;42.686;23.352;2023-10-08T00:37:08;12.77;;;6.57;;
41233;SDS011;26968;42.686;23.352;2023-10-08T00:39:39;22.52;;;6.40;;
41233;SDS011;26968;42.686;23.352;2023-10-08T00:42:06;13.48;;;6.43;;
41233;SDS011;26968;42.686;23.352;2023-10-08T00:44:33;15.90;;;6.97;;
41233;SDS011;26968;42.686;23.352;2023-10-08T00:47:06;13.77;;;6.60;;
41233;SDS011;26968;42.686;23.352;2023-10-08T00:49:32;17.10;;;6.43;;
41233;SDS011;26968;42.686;23.352;2023-10-08T00:52:24;15.50;;;7.10;;
41233;SDS011;26968;42.686;23.352;2023-10-08T00:55:04;12.57;;;6.20;;
41233;SDS011;26968;42.686;23.352;2023-10-08T00:57:29;14.27;;;6.68;;
41233;SDS011;26968;42.686;23.352;2023-10-08T00:59:59;15.13;;;6.63;;
41233;SDS011;26968;42.686;23.352;2023-10-08T01:02:25;17.20;;;6.82;;
41233;SDS011;26968;42.686;23.352;2023-10-08T01:04:55;16.42;;;7.38;;
41233;SDS011;26968;42.686;23.352;2023-10-08T01:07:21;13.00;;;6.60;;
41233;SDS011;26968;42.686;23.352;2023-10-08T01:09:49;14.23;;;6.85;;
41233;SDS011;26968;42.686;23.352;2023-10-08T01:12:20;15.70;;;7.05;;
41233;SDS011;26968;42.686;23.352;2023-10-08T01:14:51;20.40;;;6.97;;
41233;SDS011;26968;42.686;23.352;2023-10-08T01:17:19;15.73;;;6.00;;
41233;SDS011;26968;42.686;23.352;2023-10-08T01:19:49;16.27;;;6.13;;
41233;SDS011;26968;42.686;23.352;2023-10-08T01:22:22;16.35;;;6.75;;
41233;SDS011;26968;42.686;23.352;2023-10-08T01:24:48;16.08;;;6.20;;
41233;SDS011;26968;42.686;23.352;2023-10-08T01:27:18;11.68;;;6.18;;
41233;SDS011;26968;42.686;23.352;2023-10-08T01:29:53;13.70;;;6.20;;
41233;SDS011;26968;42.686;23.352;2023-10-08T01:32:19;15.82;;;6.53;;
41233;SDS011;26968;42.686;23.352;2023-10-08T01:34:47;11.65;;;6.25;;
41233;SDS011;26968;42.686;23.352;2023-10-08T01:37:16;14.35;;;5.88;;
41233;SDS011;26968;42.686;23.352;2023-10-08T01:39:43;12.82;;;6.20;;
41233;SDS011;26968;42.686;23.352;2023-10-08T01:42:10;15.80;;;6.88;;
41233;SDS011;26968;42.686;23.352;2023-10-08T01:44:43;14.02;;;6.30;;
41233;SDS011;26968;42.686;23.352;2023-10-08T01:47:11;14.73;;;6.07;;
41233;SDS011;26968;42.686;23.352;2023-10-08T01:49:37;19.40;;;6.53;;
41233;SDS011;26968;42.686;23.352;2023-10-08T01:52:04;13.65;;;5.93;;
41233;SDS011;26968;42.686;23.352;2023-10-08T01:54:33;15.85;;;5.95;;
41233;SDS011;26968;42.686;23.352;2023-10-08T01:57:01;17.83;;;6.05;;
41233;SDS011;26968;42.686;23.352;2023-10-08T01:59:26;11.05;;;5.65;;
41233;SDS011;26968;42.686;23.352;2023-10-08T02:01:52;16.73;;;5.88;;
41233;SDS011;26968;42.686;23.352;2023-10-08T02:04:21;12.38;;;5.40;;
41233;SDS011;26968;42.686;23.352;2023-10-08T02:06:46;13.93;;;5.43;;
41233;SDS011;26968;42.686;23.352;2023-10-08T02:09:12;12.57;;;6.03;;
41233;SDS011;26968;42.686;23.352;2023-10-08T02:11:46;13.50;;;6.20;;
41233;SDS011;26968;42.686;23.352;2023-10-08T02:14:19;14.45;;;6.43;;
41233;SDS011;26968;42.686;23.352;2023-10-08T02:16:49;14.00;;;5.70;;
41233;SDS011;26968;42.686;23.352;2023-10-08T02:19:17;11.90;;;5.45;;
41233;SDS011;26968;42.686;23.352;2023-10-08T02:21:52;15.73;;;6.03;;
41233;SDS011;26968;42.686;23.352;2023-10-08T02:24:19;17.33;;;5.68;;
41233;SDS011;26968;42.686;23.352;2023-10-08T02:26:46;13.35;;;5.95;;
41233;SDS011;26968;42.686;23.352;2023-10-08T02:29:12;16.00;;;4.88;;
41233;SDS011;26968;42.686;23.352;2023-10-08T02:31:38;13.73;;;5.93;;
41233;SDS011;26968;42.686;23.352;2023-10-08T02:34:05;10.73;;;5.43;;
41233;SDS011;26968;42.686;23.352;2023-10-08T02:36:34;14.25;;;5.38;;
41233;SDS011;26968;42.686;23.352;2023-10-08T02:39:05;15.02;;;5.97;;
41233;SDS011;26968;42.686;23.352;2023-10-08T02:41:46;8.45;;;4.63;;
41233;SDS011;26968;42.686;23.352;2023-10-08T02:44:13;18.35;;;5.63;;
41233;SDS011;26968;42.686;23.352;2023-10-08T02:46:40;8.75;;;4.97;;
41233;SDS011;26968;42.686;23.352;2023-10-08T02:49:09;14.30;;;5.28;;
41233;SDS011;26968;42.686;23.352;2023-10-08T02:51:41;13.43;;;5.82;;
41233;SDS011;26968;42.686;23.352;2023-10-08T02:54:10;11.13;;;5.05;;
41233;SDS011;26968;42.686;23.352;2023-10-08T02:56:49;13.68;;;5.32;;
41233;SDS011;26968;42.686;23.352;2023-10-08T02:59:20;12.57;;;5.55;;
41233;SDS011;26968;42.686;23.352;2023-10-08T03:01:48;12.73;;;5.30;;
41233;SDS011;26968;42.686;23.352;2023-10-08T03:04:21;10.32;;;4.97;;
41233;SDS011;26968;42.686;23.352;2023-10-08T03:06:48;11.48;;;5.40;;
41233;SDS011;26968;42.686;23.352;2023-10-08T03:09:18;13.52;;;5.30;;
41233;SDS011;26968;42.686;23.352;2023-10-08T03:11:57;12.82;;;4.28;;
41233;SDS011;26968;42.686;23.352;2023-10-08T03:14:23;12.05;;;5.30;;
41233;SDS011;26968;42.686;23.352;2023-10-08T03:16:53;12.68;;;5.28;;
41233;SDS011;26968;42.686;23.352;2023-10-08T03:19:21;18.75;;;5.93;;
41233;SDS011;26968;42.686;23.352;2023-10-08T03:21:47;13.52;;;5.45;;
41233;SDS011;26968;42.686;23.352;2023-10-08T03:24:17;15.05;;;6.15;;
41233;SDS011;26968;42.686;23.352;2023-10-08T03:26:56;13.60;;;5.53;;
41233;SDS011;26968;42.686;23.352;2023-10-08T03:29:31;18.45;;;6.53;;
41233;SDS011;26968;42.686;23.352;2023-10-08T03:31:57;11.15;;;5.97;;
41233;SDS011;26968;42.686;23.352;2023-10-08T03:34:23;13.68;;;5.40;;
41233;SDS011;26968;42.686;23.352;2023-10-08T03:36:53;12.00;;;5.30;;
41233;SDS011;26968;42.686;23.352;2023-10-08T03:39:25;15.10;;;5.30;;
41233;SDS011;26968;42.686;23.352;2023-10-08T03:42:08;11.40;;;5.47;;
41233;SDS011;26968;42.686;23.352;2023-10-08T03:44:37;18.05;;;5.45;;
41233;SDS011;26968;42.686;23.352;2023-10-08T03:47:03;20.55;;;5.45;;
41233;SDS011;26968;42.686;23.352;2023-10-08T03:49:35;13.65;;;5.57;;
41233;SDS011;26968;42.686;23.352;2023-10-08T03:52:10;14.70;;;5.00;;
41233;SDS011;26968;42.686;23.352;2023-10-08T03:54:36;13.93;;;5.10;;
41233;SDS011;26968;42.686;23.352;2023-10-08T03:59:39;12.95;;;6.00;;
41233;SDS011;26968;42.686;23.352;2023-10-08T04:02:06;18.20;;;5.40;;
41233;SDS011;26968;42.686;23.352;2023-10-08T04:04:54;18.17;;;5.65;;
41233;SDS011;26968;42.686;23.352;2023-10-08T04:07:23;12.20;;;5.30;;
41233;SDS011;26968;42.686;23.352;2023-10-08T04:09:53;11.23;;;5.37;;
41233;SDS011;26968;42.686;23.352;2023-10-08T04:15:04;11.05;;;5.32;;
41233;SDS011;26968;42.686;23.352;2023-10-08T04:17:35;13.18;;;5.55;;
41233;SDS011;26968;42.686;23.352;2023-10-08T04:20:09;17.00;;;5.70;;
41233;SDS011;26968;42.686;23.352;2023-10-08T04:22:57;14.25;;;6.10;;
41233;SDS011;26968;42.686;23.352;2023-10-08T04:25:25;16.83;;;5.70;;
41233;SDS011;26968;42.686;23.352;2023-10-08T04:27:54;13.63;;;6.00;;
41233;SDS011;26968;42.686;23.352;2023-10-08T04:30:23;13.20;;;5.80;;
41233;SDS011;26968;42.686;23.352;2023-10-08T04:32:57;15.23;;;6.20;;
41233;SDS011;26968;42.686;23.352;2023-10-08T04:35:33;13.68;;;5.65;;
41233;SDS011;26968;42.686;23.352;2023-10-08T04:38:02;16.40;;;5.50;;
41233;SDS011;26968;42.686;23.352;2023-10-08T04:40:29;17.40;;;6.80;;
41233;SDS011;26968;42.686;23.352;2023-10-08T04:43:04;12.15;;;6.22;;
41233;SDS011;26968;42.686;23.352;2023-10-08T04:45:30;19.33;;;7.80;;
41233;SDS011;26968;42.686;23.352;2023-10-08T04:47:59;16.25;;;6.82;;
41233;SDS011;26968;42.686;23.352;2023-10-08T04:50:24;18.70;;;7.45;;
41233;SDS011;26968;42.686;23.352;2023-10-08T04:52:55;17.83;;;8.10;;
41233;SDS011;26968;42.686;23.352;2023-10-08T04:55:26;16.10;;;7.57;;
41233;SDS011;26968;42.686;23.352;2023-10-08T04:57:55;22.63;;;7.70;;
41233;SDS011;26968;42.686;23.352;2023-10-08T05:00:21;23.20;;;7.88;;
41233;SDS011;26968;42.686;23.352;2023-10-08T05:03:05;23.10;;;7.55;;
41233;SDS011;26968;42.686;23.352;2023-10-08T05:05:38;15.88;;;6.97;;
41233;SDS011;26968;42.686;23.352;2023-10-08T05:08:20;22.05;;;9.43;;
41233;SDS011;26968;42.686;23.352;2023-10-08T05:13:49;14.70;;;8.35;;
41233;SDS011;26968;42.686;23.352;2023-10-08T05:16:27;19.90;;;7.75;;
41233;SDS011;26968;42.686;23.352;2023-10-08T05:19:09;17.17;;;7.95;;
41233;SDS011;26968;42.686;23.352;2023-10-08T05:22:02;22.08;;;7.60;;
41233;SDS011;26968;42.686;23.352;2023-10-08T05:24:43;22.48;;;7.97;;
41233;SDS011;26968;42.686;23.352;2023-10-08T05:27:51;21.02;;;9.10;;
41233;SDS011;26968;42.686;23.352;2023-10-08T05:30:21;19.65;;;7.35;;
41233;SDS011;26968;42.686;23.352;2023-10-08T05:33:14;19.75;;;8.40;;
41233;SDS011;26968;42.686;23.352;2023-10-08T05:36:12;20.15;;;9.00;;
41233;SDS011;26968;42.686;23.352;2023-10-08T05:38:52;21.48;;;10.18;;
41233;SDS011;26968;42.686;23.352;2023-10-08T05:41:44;16.23;;;7.25;;
41233;SDS011;26968;42.686;23.352;2023-10-08T05:44:38;17.48;;;7.72;;
41233;SDS011;26968;42.686;23.352;2023-10-08T05:47:05;15.98;;;8.63;;
41233;SDS011;26968;42.686;23.352;2023-10-08T05:49:54;16.88;;;8.10;;
41233;SDS011;26968;42.686;23.352;2023-10-08T05:52:39;15.45;;;6.40;;
41233;SDS011;26968;42.686;23.352;2023-10-08T05:55:23;19.73;;;7.70;;
41233;SDS011;26968;42.686;23.352;2023-10-08T05:57:55;20.52;;;8.18;;
41233;SDS011;26968;42.686;23.352;2023-10-08T06:01:00;21.40;;;7.80;;
41233;SDS011;26968;42.686;23.352;2023-10-08T06:03:34;20.15;;;8.18;;
41233;SDS011;26968;42.686;23.352;2023-10-08T06:06:12;14.95;;;7.93;;
41233;SDS011;26968;42.686;23.352;2023-10-08T06:08:38;20.17;;;9.07;;
41233;SDS011;26968;42.686;23.352;2023-10-08T06:11:22;19.92;;;9.70;;
41233;SDS011;26968;42.686;23.352;2023-10-08T06:14:08;26.15;;;11.27;;
41233;SDS011;26968;42.686;23.352;2023-10-08T06:16:45;25.90;;;10.13;;
41233;SDS011;26968;42.686;23.352;2023-10-08T06:19:12;20.80;;;9.73;;
41233;SDS011;26968;42.686;23.352;2023-10-08T06:21:39;15.73;;;7.05;;
41233;SDS011;26968;42.686;23.352;2023-10-08T06:24:06;19.30;;;7.43;;
41233;SDS011;26968;42.686;23.352;2023-10-08T06:26:36;20.40;;;7.28;;
41233;SDS011;26968;42.686;23.352;2023-10-08T06:29:07;33.70;;;7.40;;
41233;SDS011;26968;42.686;23.352;2023-10-08T06:31:52;17.33;;;8.02;;
41233;SDS011;26968;42.686;23.352;2023-10-08T06:34:22;14.93;;;7.90;;
41233;SDS011;26968;42.686;23.352;2023-10-08T06:36:50;24.80;;;9.35;;
41233;SDS011;26968;42.686;23.352;2023-10-08T06:39:22;22.33;;;9.63;;
41233;SDS011;26968;42.686;23.352;2023-10-08T06:41:58;18.10;;;8.48;;
41233;SDS011;26968;42.686;23.352;2023-10-08T06:44:24;17.02;;;8.43;;
41233;SDS011;26968;42.686;23.352;2023-10-08T06:46:51;21.45;;;10.23;;
41233;SDS011;26968;42.686;23.352;2023-10-08T06:49:23;21.67;;;9.35;;
41233;SDS011;26968;42.686;23.352;2023-10-08T06:51:49;19.52;;;8.93;;
41233;SDS011;26968;42.686;23.352;2023-10-08T06:54:17;22.60;;;8.85;;
41233;SDS011;26968;42.686;23.352;2023-10-08T06:56:43;23.50;;;8.93;;
41233;SDS011;26968;42.686;23.352;2023-10-08T06:59:17;16.77;;;8.27;;
41233;SDS011;26968;42.686;23.352;2023-10-08T07:01:42;19.60;;;7.57;;
41233;SDS011;26968;42.686;23.352;2023-10-08T07:04:11;19.15;;;6.93;;
41233;SDS011;26968;42.686;23.352;2023-10-08T07:06:38;23.88;;;7.85;;
41233;SDS011;26968;42.686;23.352;2023-10-08T07:09:05;20.17;;;8.00;;
41233;SDS011;26968;42.686;23.352;2023-10-08T07:11:32;29.05;;;7.80;;
41233;SDS011;26968;42.686;23.352;2023-10-08T07:14:04;18.17;;;8.23;;
41233;SDS011;26968;42.686;23.352;2023-10-08T07:16:30;16.35;;;7.47;;
41233;SDS011;26968;42.686;23.352;2023-10-08T07:18:56;15.85;;;7.13;;
41233;SDS011;26968;42.686;23.352;2023-10-08T07:21:30;19.92;;;7.68;;
41233;SDS011;26968;42.686;23.352;2023-10-08T07:24:10;17.95;;;8.50;;
41233;SDS011;26968;42.686;23.352;2023-10-08T07:26:40;15.97;;;7.70;;
41233;SDS011;26968;42.686;23.352;2023-10-08T07:29:11;18.55;;;7.40;;
41233;SDS011;26968;42.686;23.352;2023-10-08T07:31:38;20.65;;;7.22;;
41233;SDS011;26968;42.686;23.352;2023-10-08T07:34:07;23.05;;;8.05;;
41233;SDS011;26968;42.686;23.352;2023-10-08T07:36:48;29.27;;;8.90;;
41233;SDS011;26968;42.686;23.352;2023-10-08T07:39:16;25.48;;;8.77;;
41233;SDS011;26968;42.686;23.352;2023-10-08T07:41:59;25.33;;;9.68;;
41233;SDS011;26968;42.686;23.352;2023-10-08T07:44:26;29.30;;;9.15;;
41233;SDS011;26968;42.686;23.352;2023-10-08T07:46:55;23.65;;;8.90;;
41233;SDS011;26968;42.686;23.352;2023-10-08T07:49:21;29.55;;;8.88;;
41233;SDS011;26968;42.686;23.352;2023-10-08T07:51:55;26.08;;;9.90;;
41233;SDS011;26968;42.686;23.352;2023-10-08T07:54:23;22.05;;;9.02;;
41233;SDS011;26968;42.686;23.352;2023-10-08T07:56:50;19.33;;;8.35;;
41233;SDS011;26968;42.686;23.352;2023-10-08T07:59:43;18.45;;;7.75;;
41233;SDS011;26968;42.686;23.352;2023-10-08T08:02:13;27.67;;;9.15;;
41233;SDS011;26968;42.686;23.352;2023-10-08T08:04:40;22.65;;;8.35;;
41233;SDS011;26968;42.686;23.352;2023-10-08T08:07:16;16.60;;;7.93;;
41233;SDS011;26968;42.686;23.352;2023-10-08T08:09:45;27.48;;;7.82;;
41233;SDS011;26968;42.686;23.352;2023-10-08T08:12:23;22.23;;;7.63;;
41233;SDS011;26968;42.686;23.352;2023-10-08T08:14:51;25.63;;;8.15;;
41233;SDS011;26968;42.686;23.352;2023-10-08T08:17:20;18.27;;;7.82;;
41233;SDS011;26968;42.686;23.352;2023-10-08T08:19:47;21.55;;;7.60;;
41233;SDS011;26968;42.686;23.352;2023-10-08T08:22:17;24.95;;;8.43;;
41233;SDS011;26968;42.686;23.352;2023-10-08T08:24:50;20.83;;;8.00;;
41233;SDS011;26968;42.686;23.352;2023-10-08T08:27:43;15.05;;;6.97;;
41233;SDS011;26968;42.686;23.352;2023-10-08T08:30:09;22.23;;;6.65;;
41233;SDS011;26968;42.686;23.352;2023-10-08T08:32:36;26.65;;;7.63;;
41233;SDS011;26968;42.686;23.352;2023-10-08T08:35:08;26.52;;;7.35;;
41233;SDS011;26968;42.686;23.352;2023-10-08T08:37:35;23.52;;;7.15;;
41233;SDS011;26968;42.686;23.352;2023-10-08T08:40:07;16.40;;;6.20;;
41233;SDS011;26968;42.686;23.352;2023-10-08T08:45:18;12.23;;;4.90;;
41233;SDS011;26968;42.686;23.352;2023-10-08T08:47:49;10.90;;;4.63;;
41233;SDS011;26968;42.686;23.352;2023-10-08T08:50:16;13.10;;;4.57;;
41233;SDS011;26968;42.686;23.352;2023-10-08T08:52:44;15.60;;;4.88;;
41233;SDS011;26968;42.686;23.352;2023-10-08T08:55:11;10.60;;;4.10;;
41233;SDS011;26968;42.686;23.352;2023-10-08T08:57:43;12.18;;;4.43;;
41233;SDS011;26968;42.686;23.352;2023-10-08T09:00:11;15.40;;;4.70;;
41233;SDS011;26968;42.686;23.352;2023-10-08T09:02:37;12.65;;;4.32;;
41233;SDS011;26968;42.686;23.352;2023-10-08T09:05:04;13.45;;;4.53;;
41233;SDS011;26968;42.686;23.352;2023-10-08T09:07:57;14.15;;;4.57;;
41233;SDS011;26968;42.686;23.352;2023-10-08T09:10:30;11.57;;;4.50;;
41233;SDS011;26968;42.686;23.352;2023-10-08T09:13:02;12.25;;;4.78;;
41233;SDS011;26968;42.686;23.352;2023-10-08T09:15:29;8.48;;;4.22;;
41233;SDS011;26968;42.686;23.352;2023-10-08T09:17:57;9.43;;;5.00;;
41233;SDS011;26968;42.686;23.352;2023-10-08T09:20:29;15.07;;;4.57;;
41233;SDS011;26968;42.686;23.352;2023-10-08T09:23:17;13.52;;;4.78;;
41233;SDS011;26968;42.686;23.352;2023-10-08T09:25:47;12.90;;;4.45;;
41233;SDS011;26968;42.686;23.352;2023-10-08T09:28:17;10.77;;;4.55;;
41233;SDS011;26968;42.686;23.352;2023-10-08T09:30:43;10.07;;;4.35;;
41233;SDS011;26968;42.686;23.352;2023-10-08T09:33:13;11.80;;;4.18;;
41233;SDS011;26968;42.686;23.352;2023-10-08T09:35:40;21.25;;;4.70;;
41233;SDS011;26968;42.686;23.352;2023-10-08T09:38:08;22.92;;;4.88;;
41233;SDS011;26968;42.686;23.352;2023-10-08T09:40:35;17.08;;;4.97;;
41233;SDS011;26968;42.686;23.352;2023-10-08T09:43:02;10.82;;;4.28;;
41233;SDS011;26968;42.686;23.352;2023-10-08T09:45:29;7.70;;;4.22;;
41233;SDS011;26968;42.686;23.352;2023-10-08T09:47:55;8.13;;;4.25;;
41233;SDS011;26968;42.686;23.352;2023-10-08T09:50:24;15.93;;;4.43;;
41233;SDS011;26968;42.686;23.352;2023-10-08T09:55:54;35.13;;;5.25;;
41233;SDS011;26968;42.686;23.352;2023-10-08T09:58:25;11.13;;;4.75;;
41233;SDS011;26968;42.686;23.352;2023-10-08T10:00:54;19.85;;;4.85;;
41233;SDS011;26968;42.686;23.352;2023-10-08T10:03:21;8.25;;;4.25;;
41233;SDS011;26968;42.686;23.352;2023-10-08T10:05:48;8.65;;;4.07;;
41233;SDS011;26968;42.686;23.352;2023-10-08T10:08:18;8.30;;;4.25;;
41233;SDS011;26968;42.686;23.352;2023-10-08T10:10:45;9.07;;;4.45;;
41233;SDS011;26968;42.686;23.352;2023-10-08T10:13:13;11.80;;;4.50;;
41233;SDS011;26968;42.686;23.352;2023-10-08T10:15:41;11.30;;;4.88;;
41233;SDS011;26968;42.686;23.352;2023-10-08T10:18:08;11.25;;;5.25;;
41233;SDS011;26968;42.686;23.352;2023-10-08T10:20:45;12.30;;;4.30;;
41233;SDS011;26968;42.686;23.352;2023-10-08T10:27:06;15.45;;;4.07;;
41233;SDS011;26968;42.686;23.352;2023-10-08T10:31:41;14.53;;;4.80;;
41233;SDS011;26968;42.686;23.352;2023-10-08T10:34:15;12.75;;;3.60;;
41233;SDS011;26968;42.686;23.352;2023-10-08T10:36:46;15.50;;;3.72;;
41233;SDS011;26968;42.686;23.352;2023-10-08T10:39:19;24.15;;;4.75;;
41233;SDS011;26968;42.686;23.352;2023-10-08T10:41:57;13.93;;;3.80;;
41233;SDS011;26968;42.686;23.352;2023-10-08T10:44:26;39.03;;;5.57;;
41233;SDS011;26968;42.686;23.352;2023-10-08T10:46:56;12.80;;;4.13;;
41233;SDS011;26968;42.686;23.352;2023-10-08T10:49:49;10.38;;;4.18;;
41233;SDS011;26968;42.686;23.352;2023-10-08T10:52:16;11.80;;;4.32;;
41233;SDS011;26968;42.686;23.352;2023-10-08T10:55:00;17.70;;;5.07;;
41233;SDS011;26968;42.686;23.352;2023-10-08T10:57:44;11.13;;;4.78;;
41233;SDS011;26968;42.686;23.352;2023-10-08T11:00:52;12.32;;;4.15;;
41233;SDS011;26968;42.686;23.352;2023-10-08T11:03:24;13.20;;;4.30;;
41233;SDS011;26968;42.686;23.352;2023-10-08T11:05:51;9.30;;;3.63;;
41233;SDS011;26968;42.686;23.352;2023-10-08T11:08:20;9.98;;;3.80;;
41233;SDS011;26968;42.686;23.352;2023-10-08T11:10:48;10.95;;;3.72;;
41233;SDS011;26968;42.686;23.352;2023-10-08T11:13:21;11.10;;;3.67;;
41233;SDS011;26968;42.686;23.352;2023-10-08T11:15:53;18.35;;;4.28;;
41233;SDS011;26968;42.686;23.352;2023-10-08T11:18:23;12.05;;;3.83;;
41233;SDS011;26968;42.686;23.352;2023-10-08T11:20:50;12.98;;;4.47;;
41233;SDS011;26968;42.686;23.352;2023-10-08T11:23:35;13.55;;;3.45;;
41233;SDS011;26968;42.686;23.352;2023-10-08T11:26:05;13.88;;;4.10;;
41233;SDS011;26968;42.686;23.352;2023-10-08T11:28:31;9.40;;;3.83;;
41233;SDS011;26968;42.686;23.352;2023-10-08T11:31:06;11.25;;;3.67;;
41233;SDS011;26968;42.686;23.352;2023-10-08T11:33:37;17.10;;;3.90;;
41233;SDS011;26968;42.686;23.352;2023-10-08T11:36:05;12.85;;;4.22;;
41233;SDS011;26968;42.686;23.352;2023-10-08T11:38:41;19.48;;;3.72;;
41233;SDS011;26968;42.686;23.352;2023-10-08T11:41:13;15.80;;;3.92;;
41233;SDS011;26968;42.686;23.352;2023-10-08T11:44:01;17.95;;;3.92;;
41233;SDS011;26968;42.686;23.352;2023-10-08T11:46:31;11.45;;;3.92;;
41233;SDS011;26968;42.686;23.352;2023-10-08T11:49:06;13.80;;;4.15;;
41233;SDS011;26968;42.686;23.352;2023-10-08T11:51:33;8.07;;;4.05;;
41233;SDS011;26968;42.686;23.352;2023-10-08T11:54:02;12.88;;;3.92;;
41233;SDS011;26968;42.686;23.352;2023-10-08T11:56:31;22.02;;;4.45;;
41233;SDS011;26968;42.686;23.352;2023-10-08T11:58:59;13.80;;;3.60;;
41233;SDS011;26968;42.686;23.352;2023-10-08T12:01:30;11.57;;;3.97;;
41233;SDS011;26968;42.686;23.352;2023-10-08T12:04:00;14.82;;;5.22;;
41233;SDS011;26968;42.686;23.352;2023-10-08T12:06:26;26.08;;;5.53;;
41233;SDS011;26968;42.686;23.352;2023-10-08T12:08:55;13.73;;;4.32;;
41233;SDS011;26968;42.686;23.352;2023-10-08T12:11:24;18.92;;;4.30;;
41233;SDS011;26968;42.686;23.352;2023-10-08T12:13:56;15.57;;;4.70;;
41233;SDS011;26968;42.686;23.352;2023-10-08T12:16:24;24.05;;;4.03;;
41233;SDS011;26968;42.686;23.352;2023-10-08T12:18:51;16.02;;;4.07;;
41233;SDS011;26968;42.686;23.352;2023-10-08T12:21:23;10.55;;;3.83;;
41233;SDS011;26968;42.686;23.352;2023-10-08T12:23:50;15.00;;;5.03;;
41233;SDS011;26968;42.686;23.352;2023-10-08T12:26:16;17.88;;;3.67;;
41233;SDS011;26968;42.686;23.352;2023-10-08T12:28:47;19.25;;;4.55;;
41233;SDS011;26968;42.686;23.352;2023-10-08T12:31:20;21.77;;;4.97;;
41233;SDS011;26968;42.686;23.352;2023-10-08T12:33:52;16.95;;;3.90;;
41233;SDS011;26968;42.686;23.352;2023-10-08T12:36:25;23.08;;;4.15;;
41233;SDS011;26968;42.686;23.352;2023-10-08T12:38:52;14.57;;;4.50;;
41233;SDS011;26968;42.686;23.352;2023-10-08T12:41:23;9.25;;;3.70;;
41233;SDS011;26968;42.686;23.352;2023-10-08T12:43:51;18.73;;;3.80;;
41233;SDS011;26968;42.686;23.352;2023-10-08T12:46:18;24.50;;;4.68;;
41233;SDS011;26968;42.686;23.352;2023-10-08T12:51:18;30.67;;;4.40;;
41233;SDS011;26968;42.686;23.352;2023-10-08T12:53:48;17.35;;;3.78;;
41233;SDS011;26968;42.686;23.352;2023-10-08T12:56:23;15.52;;;3.65;;
41233;SDS011;26968;42.686;23.352;2023-10-08T12:59:04;21.17;;;4.20;;
41233;SDS011;26968;42.686;23.352;2023-10-08T13:01:34;17.73;;;3.60;;
41233;SDS011;26968;42.686;23.352;2023-10-08T13:04:01;21.05;;;4.07;;
41233;SDS011;26968;42.686;23.352;2023-10-08T13:06:32;21.67;;;4.07;;
41233;SDS011;26968;42.686;23.352;2023-10-08T13:09:02;24.30;;;4.45;;
41233;SDS011;26968;42.686;23.352;2023-10-08T13:11:34;16.80;;;3.92;;
41233;SDS011;26968;42.686;23.352;2023-10-08T13:13:59;19.88;;;4.47;;
41233;SDS011;26968;42.686;23.352;2023-10-08T13:16:25;43.50;;;5.55;;
41233;SDS011;26968;42.686;23.352;2023-10-08T13:18:56;19.60;;;4.07;;
41233;SDS011;26968;42.686;23.352;2023-10-08T13:21:24;21.90;;;4.00;;
41233;SDS011;26968;42.686;23.352;2023-10-08T13:23:54;12.85;;;4.07;;
41233;SDS011;26968;42.686;23.352;2023-10-08T13:26:25;22.27;;;4.07;;
41233;SDS011;26968;42.686;23.352;2023-10-08T13:28:56;15.32;;;4.03;;
41233;SDS011;26968;42.686;23.352;2023-10-08T13:31:21;26.27;;;4.72;;
41233;SDS011;26968;42.686;23.352;2023-10-08T13:33:48;13.93;;;3.90;;
41233;SDS011;26968;42.686;23.352;2023-10-08T13:36:17;16.98;;;3.70;;
41233;SDS011;26968;42.686;23.352;2023-10-08T13:38:43;25.15;;;4.32;;
41233;SDS011;26968;42.686;23.352;2023-10-08T13:41:11;18.08;;;4.03;;
41233;SDS011;26968;42.686;23.352;2023-10-08T13:43:40;20.13;;;4.45;;
41233;SDS011;26968;42.686;23.352;2023-10-08T13:46:24;13.57;;;3.65;;
41233;SDS011;26968;42.686;23.352;2023-10-08T13:48:50;18.67;;;3.85;;
41233;SDS011;26968;42.686;23.352;2023-10-08T13:51:17;13.80;;;3.92;;
41233;SDS011;26968;42.686;23.352;2023-10-08T13:53:49;19.92;;;4.65;;
41233;SDS011;26968;42.686;23.352;2023-10-08T13:56:24;16.63;;;4.28;;
41233;SDS011;26968;42.686;23.352;2023-10-08T13:58:52;13.65;;;3.75;;
41233;SDS011;26968;42.686;23.352;2023-10-08T14:01:36;21.67;;;3.90;;
41233;SDS011;26968;42.686;23.352;2023-10-08T14:04:04;20.10;;;4.65;;
41233;SDS011;26968;42.686;23.352;2023-10-08T14:06:36;12.73;;;4.10;;
41233;SDS011;26968;42.686;23.352;2023-10-08T14:09:03;12.25;;;3.53;;
41233;SDS011;26968;42.686;23.352;2023-10-08T14:11:34;18.08;;;4.55;;
41233;SDS011;26968;42.686;23.352;2023-10-08T14:14:00;12.73;;;3.83;;
41233;SDS011;26968;42.686;23.352;2023-10-08T14:16:27;15.50;;;4.03;;
41233;SDS011;26968;42.686;23.352;2023-10-08T14:18:57;21.92;;;4.40;;
41233;SDS011;26968;42.686;23.352;2023-10-08T14:21:25;15.48;;;3.80;;
41233;SDS011;26968;42.686;23.352;2023-10-08T14:23:58;11.88;;;3.55;;
41233;SDS011;26968;42.686;23.352;2023-10-08T14:26:28;12.30;;;4.00;;
41233;SDS011;26968;42.686;23.352;2023-10-08T14:29:00;17.33;;;3.88;;
41233;SDS011;26968;42.686;23.352;2023-10-08T14:31:32;27.77;;;4.30;;
41233;SDS011;26968;42.686;23.352;2023-10-08T14:33:59;23.35;;;4.03;;
41233;SDS011;26968;42.686;23.352;2023-10-08T14:36:33;27.75;;;3.95;;
41233;SDS011;26968;42.686;23.352;2023-10-08T14:39:17;20.00;;;4.32;;
41233;SDS011;26968;42.686;23.352;2023-10-08T14:42:02;28.48;;;4.18;;
41233;SDS011;26968;42.686;23.352;2023-10-08T14:44:46;14.05;;;3.70;;
41233;SDS011;26968;42.686;23.352;2023-10-08T14:47:12;29.52;;;4.63;;
41233;SDS011;26968;42.686;23.352;2023-10-08T14:49:38;19.65;;;4.57;;
41233;SDS011;26968;42.686;23.352;2023-10-08T14:52:03;28.10;;;4.30;;
41233;SDS011;26968;42.686;23.352;2023-10-08T14:54:30;19.08;;;4.47;;
41233;SDS011;26968;42.686;23.352;2023-10-08T14:56:56;27.92;;;4.55;;
41233;SDS011;26968;42.686;23.352;2023-10-08T14:59:22;23.15;;;4.93;;
41233;SDS011;26968;42.686;23.352;2023-10-08T15:01:48;27.15;;;4.10;;
41233;SDS011;26968;42.686;23.352;2023-10-08T15:04:15;10.25;;;3.58;;
41233;SDS011;26968;42.686;23.352;2023-10-08T15:06:41;26.98;;;5.05;;